createdAt,value
2022-09-15T00:01:10.062Z,85.02
2022-09-15T00:03:38.084Z,84.93
2022-09-15T00:06:06.364Z,84.90
2022-09-15T00:08:35.996Z,84.71
2022-09-15T00:11:07.311Z,84.72
2022-09-15T00:13:36.145Z,84.34
2022-09-15T00:16:04.954Z,84.56
2022-09-15T00:18:33.921Z,84.76
2022-09-15T00:21:06.698Z,84.16
2022-09-15T00:23:36.504Z,84.24
2022-09-15T00:26:10.374Z,84.88
2022-09-15T00:28:38.578Z,85.33
2022-09-15T00:31:08.284Z,85.03
2022-09-15T00:33:36.433Z,85.19
2022-09-15T00:36:06.706Z,85.16
2022-09-15T00:38:37.157Z,85.28
2022-09-15T00:41:06.719Z,85.14
2022-09-15T00:43:46.943Z,85.00
2022-09-15T00:46:16.261Z,85.43
2022-09-15T00:48:47.255Z,84.81
2022-09-15T00:51:18.199Z,84.13
2022-09-15T00:53:48.542Z,84.15
2022-09-15T00:56:17.522Z,83.75
2022-09-15T00:58:49.678Z,84.04
2022-09-15T01:01:17.791Z,83.72
2022-09-15T01:03:45.820Z,84.03
2022-09-15T01:06:16.978Z,83.86
2022-09-15T01:08:50.172Z,83.31
2022-09-15T01:11:18.230Z,83.55
2022-09-15T01:13:46.347Z,84.05
2022-09-15T01:16:18.720Z,83.77
2022-09-15T01:18:52.747Z,83.66
2022-09-15T01:21:32.078Z,84.07
2022-09-15T01:24:42.030Z,83.70
2022-09-15T01:27:40.883Z,83.74
2022-09-15T01:30:13.580Z,83.96
2022-09-15T01:33:05.219Z,83.88
2022-09-15T01:35:39.218Z,83.71
2022-09-15T01:38:10.350Z,83.56
2022-09-15T01:40:42.136Z,83.75
2022-09-15T01:43:10.832Z,83.34
2022-09-15T01:45:43.441Z,84.14
2022-09-15T01:48:12.105Z,83.84
2022-09-15T01:50:44.044Z,83.34
2022-09-15T01:53:14.353Z,83.22
2022-09-15T01:55:45.358Z,82.89
2022-09-15T01:58:13.380Z,82.77
2022-09-15T02:00:46.332Z,82.43
2022-09-15T02:03:21.288Z,82.79
2022-09-15T02:05:52.304Z,82.43
2022-09-15T02:08:28.542Z,82.83
2022-09-15T02:11:04.296Z,83.04
2022-09-15T02:13:40.780Z,83.05
2022-09-15T02:16:19.830Z,82.92
2022-09-15T02:18:56.557Z,82.90
2022-09-15T02:21:30.169Z,82.68
2022-09-15T02:24:03.479Z,82.67
2022-09-15T02:26:33.818Z,82.40
2022-09-15T02:29:06.499Z,82.24
2022-09-15T02:31:36.626Z,82.33
2022-09-15T02:34:09.161Z,82.19
2022-09-15T02:36:37.237Z,82.57
2022-09-15T02:39:09.542Z,82.59
2022-09-15T02:41:38.125Z,81.87
2022-09-15T02:44:06.110Z,82.40
2022-09-15T02:46:35.474Z,82.75
2022-09-15T02:49:03.543Z,82.43
2022-09-15T02:51:31.996Z,81.79
2022-09-15T02:54:00.025Z,82.11
2022-09-15T02:56:28.093Z,82.10
2022-09-15T02:58:56.103Z,81.31
2022-09-15T03:01:30.115Z,81.44
2022-09-15T03:04:00.172Z,81.31
2022-09-15T03:06:30.817Z,81.13
2022-09-15T03:09:00.315Z,80.86
2022-09-15T03:11:29.491Z,81.25
2022-09-15T03:13:58.669Z,81.20
2022-09-15T03:16:27.179Z,80.91
2022-09-15T03:18:55.792Z,80.60
2022-09-15T03:21:25.250Z,80.37
2022-09-15T03:23:53.373Z,80.26
2022-09-15T03:26:21.374Z,80.12
2022-09-15T03:28:50.096Z,80.04
2022-09-15T03:31:19.942Z,79.90
2022-09-15T03:33:48.101Z,80.07
2022-09-15T03:36:16.037Z,79.76
2022-09-15T03:38:45.414Z,79.47
2022-09-15T03:41:13.600Z,79.56
2022-09-15T03:43:42.080Z,79.29
2022-09-15T03:46:12.060Z,79.45
2022-09-15T03:48:40.970Z,79.27
2022-09-15T03:51:10.546Z,79.73
2022-09-15T03:53:39.557Z,79.63
2022-09-15T03:56:16.065Z,79.03
2022-09-15T03:58:44.126Z,79.29
2022-09-15T04:01:13.684Z,79.17
2022-09-15T04:03:46.366Z,79.38
2022-09-15T04:06:17.761Z,79.22
2022-09-15T04:08:45.899Z,78.95
2022-09-15T04:11:15.843Z,79.18
2022-09-15T04:13:44.202Z,79.12
2022-09-15T04:16:14.024Z,78.52
2022-09-15T04:18:42.157Z,79.09
2022-09-15T04:21:13.303Z,78.93
2022-09-15T04:23:41.735Z,78.69
2022-09-15T04:26:12.278Z,78.82
2022-09-15T04:28:41.600Z,78.73
2022-09-15T04:31:11.102Z,78.79
2022-09-15T04:33:40.637Z,78.46
2022-09-15T04:36:10.448Z,78.73
2022-09-15T04:38:38.811Z,78.74
2022-09-15T04:41:07.383Z,78.71
2022-09-15T04:43:35.376Z,78.82
2022-09-15T04:46:05.125Z,78.96
2022-09-15T04:48:33.563Z,78.63
2022-09-15T04:51:06.344Z,78.60
2022-09-15T04:53:35.718Z,78.46
2022-09-15T04:56:04.931Z,78.07
2022-09-15T04:58:36.920Z,78.02
2022-09-15T05:01:10.540Z,77.88
2022-09-15T05:03:39.151Z,77.68
2022-09-15T05:06:09.050Z,76.98
2022-09-15T05:08:37.146Z,77.26
2022-09-15T05:11:07.630Z,77.34
2022-09-15T05:13:36.260Z,77.13
2022-09-15T05:16:05.627Z,76.86
2022-09-15T05:18:35.154Z,76.79
2022-09-15T05:21:03.941Z,77.24
2022-09-15T05:23:31.994Z,76.84
2022-09-15T05:26:01.363Z,76.76
2022-09-15T05:28:30.014Z,76.87
2022-09-15T05:30:58.098Z,76.58
2022-09-15T05:33:26.124Z,76.24
2022-09-15T05:35:58.754Z,76.28
2022-09-15T05:38:29.430Z,76.85
2022-09-15T05:41:03.371Z,76.57
2022-09-15T05:43:32.330Z,76.33
2022-09-15T05:46:00.384Z,76.21
2022-09-15T05:48:28.785Z,76.78
2022-09-15T05:50:58.299Z,76.90
2022-09-15T05:53:26.820Z,76.79
2022-09-15T05:55:58.264Z,76.55
2022-09-15T05:58:26.539Z,76.72
2022-09-15T06:00:55.048Z,76.82
2022-09-15T06:03:30.074Z,76.88
2022-09-15T06:06:04.142Z,76.27
2022-09-15T06:08:32.957Z,76.05
2022-09-15T06:11:09.195Z,76.01
2022-09-15T06:13:37.155Z,75.73
2022-09-15T06:16:07.096Z,75.70
2022-09-15T06:18:37.251Z,75.69
2022-09-15T06:21:09.028Z,75.73
2022-09-15T06:23:38.023Z,75.98
2022-09-15T06:26:11.234Z,75.55
2022-09-15T06:28:39.766Z,75.74
2022-09-15T06:31:12.104Z,75.71
2022-09-15T06:33:43.305Z,75.99
2022-09-15T06:36:13.393Z,75.40
2022-09-15T06:38:41.927Z,75.36
2022-09-15T06:41:10.245Z,75.34
2022-09-15T06:43:38.422Z,75.02
2022-09-15T06:46:09.174Z,74.99
2022-09-15T06:48:37.695Z,74.61
2022-09-15T06:51:07.166Z,74.73
2022-09-15T06:53:38.140Z,74.84
2022-09-15T06:56:07.948Z,74.54
2022-09-15T06:58:36.828Z,75.19
2022-09-15T07:01:05.988Z,74.68
2022-09-15T07:03:34.061Z,74.23
2022-09-15T07:06:02.475Z,74.13
2022-09-15T07:08:30.759Z,74.10
2022-09-15T07:11:00.150Z,74.42
2022-09-15T07:13:28.151Z,73.81
2022-09-15T07:15:57.763Z,74.34
2022-09-15T07:18:26.687Z,74.22
2022-09-15T07:20:59.832Z,73.84
2022-09-15T07:23:28.368Z,73.87
2022-09-15T07:26:07.651Z,74.18
2022-09-15T07:28:36.063Z,74.17
2022-09-15T07:31:04.790Z,73.94
2022-09-15T07:33:33.578Z,73.60
2022-09-15T07:36:01.996Z,73.93
2022-09-15T07:38:30.258Z,73.43
2022-09-15T07:41:04.215Z,73.44
2022-09-15T07:43:34.078Z,73.84
2022-09-15T07:46:02.721Z,74.04
2022-09-15T07:48:30.966Z,73.50
2022-09-15T07:50:59.945Z,73.80
2022-09-15T07:53:29.170Z,73.55
2022-09-15T07:55:57.583Z,73.63
2022-09-15T07:58:25.910Z,73.84
2022-09-15T08:00:55.305Z,73.57
2022-09-15T08:03:23.334Z,73.66
2022-09-15T08:05:51.347Z,72.72
2022-09-15T08:08:19.426Z,72.95
2022-09-15T08:10:47.452Z,73.03
2022-09-15T08:13:15.430Z,71.96
2022-09-15T08:15:45.091Z,73.04
2022-09-15T08:18:14.765Z,73.54
2022-09-15T08:20:43.493Z,74.61
2022-09-15T08:23:12.453Z,73.38
2022-09-15T08:25:40.585Z,73.71
2022-09-15T08:28:08.575Z,72.97
2022-09-15T08:30:36.619Z,71.51
2022-09-15T08:33:04.656Z,72.94
2022-09-15T08:35:34.415Z,71.98
2022-09-15T08:38:02.379Z,72.14
2022-09-15T08:40:33.979Z,71.71
2022-09-15T08:43:06.075Z,71.50
2022-09-15T08:45:44.112Z,70.71
2022-09-15T08:48:15.727Z,70.16
2022-09-15T08:50:46.865Z,70.63
2022-09-15T08:53:17.538Z,69.31
2022-09-15T08:55:49.176Z,69.34
2022-09-15T08:58:19.521Z,69.40
2022-09-15T09:00:51.733Z,70.13
2022-09-15T09:03:44.612Z,69.67
2022-09-15T09:06:22.353Z,69.02
2022-09-15T09:09:05.819Z,69.92
2022-09-15T09:11:43.211Z,70.24
2022-09-15T09:14:20.405Z,69.69
2022-09-15T09:17:13.616Z,69.87
2022-09-15T09:19:58.959Z,69.80
2022-09-15T09:22:31.706Z,68.72
2022-09-15T09:25:08.554Z,68.04
2022-09-15T09:27:44.236Z,67.84
2022-09-15T09:30:17.399Z,68.35
2022-09-15T09:32:47.849Z,66.99
2022-09-15T09:35:20.311Z,67.93
2022-09-15T09:37:50.828Z,67.19
2022-09-15T09:40:19.467Z,66.02
2022-09-15T09:42:47.711Z,67.07
2022-09-15T09:45:17.057Z,67.41
2022-09-15T09:47:46.306Z,65.57
2022-09-15T09:50:35.805Z,63.74
2022-09-15T09:53:20.063Z,64.79
2022-09-15T09:55:48.120Z,64.75
2022-09-15T09:58:20.980Z,63.96
2022-09-15T10:00:49.356Z,64.46
2022-09-15T10:03:19.305Z,64.98
2022-09-15T10:06:02.068Z,65.84
2022-09-15T10:08:31.484Z,65.93
2022-09-15T10:11:04.596Z,64.03
2022-09-15T10:13:32.643Z,63.53
2022-09-15T10:16:02.321Z,65.26
2022-09-15T10:18:34.042Z,63.23
2022-09-15T10:21:03.084Z,64.04
2022-09-15T10:23:34.171Z,63.84
2022-09-15T10:26:21.304Z,64.16
2022-09-15T10:29:14.275Z,63.05
2022-09-15T10:31:44.029Z,62.87
2022-09-15T10:34:28.700Z,64.07
2022-09-15T10:37:05.483Z,65.33
2022-09-15T10:39:41.148Z,62.57
2022-09-15T10:42:14.322Z,63.48
2022-09-15T10:44:47.129Z,63.41
2022-09-15T10:47:21.207Z,63.54
2022-09-15T10:49:58.606Z,64.31
2022-09-15T10:52:33.059Z,64.53
2022-09-15T10:55:15.295Z,65.06
2022-09-15T10:57:53.725Z,65.12
2022-09-15T11:00:24.064Z,64.15
2022-09-15T11:03:15.885Z,61.71
2022-09-15T11:05:52.028Z,63.06
2022-09-15T11:08:47.457Z,65.72
2022-09-15T11:11:20.598Z,64.88
2022-09-15T11:13:59.290Z,65.40
2022-09-15T11:16:35.912Z,66.06
2022-09-15T11:19:16.657Z,67.08
2022-09-15T11:21:48.094Z,70.15
2022-09-15T11:24:30.501Z,68.19
2022-09-15T11:27:04.787Z,69.28
2022-09-15T11:29:37.487Z,69.47
2022-09-15T11:32:10.087Z,67.31
2022-09-15T11:34:43.770Z,67.50
2022-09-15T11:37:15.233Z,67.04
2022-09-15T11:39:48.473Z,68.30
2022-09-15T11:42:20.287Z,68.38
2022-09-15T11:44:49.122Z,70.27
2022-09-15T11:47:23.810Z,74.07
2022-09-15T11:49:56.225Z,75.96
2022-09-15T11:52:46.839Z,76.00
2022-09-15T11:55:20.660Z,76.52
2022-09-15T11:57:54.699Z,76.07
2022-09-15T12:00:22.781Z,76.51
2022-09-15T12:02:54.683Z,77.13
2022-09-15T12:05:25.395Z,77.24
2022-09-15T12:07:56.554Z,78.70
2022-09-15T12:10:30.183Z,79.07
2022-09-15T12:13:01.185Z,78.58
2022-09-15T12:15:29.475Z,78.96
2022-09-15T12:18:27.672Z,79.65
2022-09-15T12:21:03.457Z,79.97
2022-09-15T12:23:34.725Z,80.18
2022-09-15T12:26:09.140Z,79.69
2022-09-15T12:28:43.479Z,81.35
2022-09-15T12:31:26.339Z,80.38
2022-09-15T12:33:55.572Z,80.25
2022-09-15T12:36:37.990Z,79.78
2022-09-15T12:39:18.368Z,79.46
2022-09-15T12:41:48.663Z,79.74
2022-09-15T12:44:24.973Z,80.54
2022-09-15T12:46:54.219Z,80.85
2022-09-15T12:49:26.654Z,80.60
2022-09-15T12:51:54.618Z,82.19
2022-09-15T12:54:24.801Z,81.20
2022-09-15T12:56:53.474Z,80.29
2022-09-15T12:59:25.317Z,79.35
2022-09-15T13:01:54.367Z,78.81
2022-09-15T13:04:48.825Z,79.06
2022-09-15T13:07:38.631Z,78.15
2022-09-15T13:10:39.414Z,76.33
2022-09-15T13:13:21.561Z,74.97
2022-09-15T13:15:53.102Z,75.78
2022-09-15T13:18:22.330Z,76.11
2022-09-15T13:20:54.793Z,75.96
2022-09-15T13:23:26.067Z,75.26
2022-09-15T13:25:57.690Z,73.55
2022-09-15T13:28:26.315Z,74.72
2022-09-15T13:31:11.212Z,75.32
2022-09-15T13:40:27.348Z,78.87
2022-09-15T13:43:08.627Z,79.33
2022-09-15T13:45:43.358Z,79.71
2022-09-15T13:48:33.438Z,79.90
2022-09-15T13:51:02.688Z,79.15
2022-09-15T13:53:42.642Z,79.06
2022-09-15T13:56:13.106Z,79.08
2022-09-15T13:59:05.167Z,79.73
2022-09-15T14:01:35.117Z,78.55
2022-09-15T14:04:07.751Z,78.56
2022-09-15T14:06:38.100Z,77.96
2022-09-15T14:09:09.736Z,78.56
2022-09-15T14:11:39.238Z,79.41
2022-09-15T14:14:11.812Z,79.20
2022-09-15T14:16:40.965Z,78.79
2022-09-15T14:19:33.865Z,77.80
2022-09-15T14:22:02.533Z,78.51
2022-09-15T14:24:32.249Z,78.08
2022-09-15T14:27:03.445Z,80.81
2022-09-15T14:29:31.524Z,78.06
2022-09-15T14:32:03.969Z,76.96
2022-09-15T14:34:36.984Z,77.74
2022-09-15T14:37:06.679Z,79.80
2022-09-15T14:39:37.670Z,79.65
2022-09-15T14:42:21.702Z,80.10
2022-09-15T14:47:41.829Z,79.88
2022-09-15T14:50:15.138Z,80.14
2022-09-15T14:52:44.842Z,81.52
2022-09-15T14:55:16.308Z,81.82
2022-09-15T14:57:48.882Z,81.50
2022-09-15T15:00:20.571Z,81.26
2022-09-15T15:02:55.676Z,81.64
2022-09-15T15:05:28.379Z,82.31
2022-09-15T15:07:56.790Z,83.06
2022-09-15T15:10:26.594Z,82.83
2022-09-15T15:12:57.823Z,83.41
2022-09-15T15:15:26.214Z,83.54
2022-09-15T15:17:55.411Z,83.51
2022-09-15T15:20:27.066Z,84.18
2022-09-15T15:23:16.517Z,84.62
2022-09-15T15:25:44.801Z,86.89
2022-09-15T15:28:31.424Z,87.82
2022-09-15T15:31:13.910Z,87.81
2022-09-15T15:33:55.891Z,87.36
2022-09-15T15:36:26.188Z,87.73
2022-09-15T15:38:55.921Z,86.52
2022-09-15T15:41:26.191Z,87.30
2022-09-15T15:44:07.763Z,87.45
2022-09-15T15:46:53.346Z,88.51
2022-09-15T15:49:22.532Z,85.66
2022-09-15T15:51:54.157Z,86.08
2022-09-15T15:54:22.680Z,85.62
2022-09-15T15:56:50.769Z,85.22
2022-09-15T15:59:19.310Z,86.13
2022-09-15T16:01:50.379Z,86.50
2022-09-15T16:04:18.431Z,86.49
2022-09-15T16:06:46.944Z,86.42
2022-09-15T16:09:17.299Z,85.07
2022-09-15T16:11:45.405Z,84.19
2022-09-15T16:14:14.486Z,86.15
2022-09-15T16:16:42.540Z,86.51
2022-09-15T16:19:11.852Z,86.46
2022-09-15T16:21:41.419Z,85.57
2022-09-15T16:24:13.739Z,84.38
2022-09-15T16:26:43.396Z,85.21
2022-09-15T16:29:11.553Z,84.94
2022-09-15T16:31:39.962Z,85.14
2022-09-15T16:34:10.010Z,84.71
2022-09-15T16:36:37.988Z,84.98
2022-09-15T16:39:05.976Z,84.18
2022-09-15T16:41:38.479Z,82.21
2022-09-15T16:44:17.611Z,82.18
2022-09-15T16:46:45.918Z,81.10
2022-09-15T16:49:13.991Z,81.79
2022-09-15T16:51:42.020Z,82.26
2022-09-15T16:54:16.004Z,81.44
2022-09-15T16:56:44.236Z,79.99
2022-09-15T16:59:14.116Z,81.55
2022-09-15T17:01:42.304Z,81.73
2022-09-15T17:04:13.639Z,81.91
2022-09-15T17:06:41.751Z,82.03
2022-09-15T17:09:09.905Z,81.38
2022-09-15T17:11:38.007Z,81.50
2022-09-15T17:14:06.222Z,81.58
2022-09-15T17:16:35.822Z,81.13
2022-09-15T17:19:03.872Z,81.92
2022-09-15T17:21:32.624Z,80.68
2022-09-15T17:24:00.744Z,81.01
2022-09-15T17:26:31.195Z,81.16
2022-09-15T17:28:59.646Z,80.90
2022-09-15T17:31:28.010Z,79.93
2022-09-15T17:33:57.568Z,79.89
2022-09-15T17:36:25.852Z,80.63
2022-09-15T17:38:53.905Z,79.78
2022-09-15T17:41:22.849Z,80.74
2022-09-15T17:43:50.862Z,78.55
2022-09-15T17:46:18.904Z,79.34
2022-09-15T17:48:46.974Z,79.25
2022-09-15T17:51:18.180Z,78.36
2022-09-15T17:53:47.752Z,78.90
2022-09-15T17:56:15.851Z,78.51
2022-09-15T17:58:43.864Z,77.80
2022-09-15T18:01:13.604Z,78.46
2022-09-15T18:03:43.687Z,78.33
2022-09-15T18:06:12.359Z,78.29
2022-09-15T18:08:41.995Z,78.49
2022-09-15T18:11:12.476Z,79.18
2022-09-15T18:13:40.487Z,79.01
2022-09-15T18:16:12.836Z,79.15
2022-09-15T18:18:41.030Z,79.54
2022-09-15T18:21:11.794Z,78.30
2022-09-15T18:23:42.461Z,78.93
2022-09-15T18:26:10.457Z,78.58
2022-09-15T18:28:38.484Z,79.34
2022-09-15T18:31:06.893Z,79.16
2022-09-15T18:33:34.932Z,79.36
2022-09-15T18:36:03.254Z,78.47
2022-09-15T18:38:31.510Z,79.00
2022-09-15T18:41:01.459Z,79.68
2022-09-15T18:43:29.591Z,79.55
2022-09-15T18:45:59.814Z,80.43
2022-09-15T18:48:28.393Z,79.74
2022-09-15T18:50:56.421Z,79.62
2022-09-15T18:53:24.616Z,79.80
2022-09-15T18:55:52.648Z,80.01
2022-09-15T18:58:22.721Z,80.39
2022-09-15T19:00:50.756Z,80.52
2022-09-15T19:03:18.757Z,80.44
2022-09-15T19:05:46.791Z,80.88
2022-09-15T19:08:15.533Z,81.13
2022-09-15T19:10:44.283Z,81.00
2022-09-15T19:13:14.155Z,81.24
2022-09-15T19:15:44.591Z,80.61
2022-09-15T19:18:12.713Z,80.45
2022-09-15T19:20:41.162Z,80.27
2022-09-15T19:23:09.430Z,80.12
2022-09-15T19:25:37.902Z,80.21
2022-09-15T19:28:05.866Z,80.29
2022-09-15T19:30:33.938Z,81.16
2022-09-15T19:33:04.770Z,81.63
2022-09-15T19:35:32.800Z,82.07
2022-09-15T19:38:00.810Z,82.26
2022-09-15T19:40:28.972Z,82.23
2022-09-15T19:42:57.086Z,82.07
2022-09-15T19:45:25.081Z,82.29
2022-09-15T19:47:53.068Z,82.19
2022-09-15T19:50:23.329Z,82.41
2022-09-15T19:52:52.697Z,82.63
2022-09-15T19:55:21.667Z,82.29
2022-09-15T19:57:49.696Z,81.95
2022-09-15T20:00:17.736Z,81.12
2022-09-15T20:02:48.570Z,81.38
2022-09-15T20:05:16.666Z,81.18
2022-09-15T20:07:48.086Z,81.46
2022-09-15T20:10:16.341Z,81.50
2022-09-15T20:12:44.635Z,81.80
2022-09-15T20:15:12.604Z,81.99
2022-09-15T20:17:42.365Z,82.20
2022-09-15T20:20:11.778Z,82.73
2022-09-15T20:22:39.811Z,83.12
2022-09-15T20:25:09.456Z,82.96
2022-09-15T20:27:38.232Z,83.51
2022-09-15T20:30:07.888Z,83.92
2022-09-15T20:32:35.965Z,83.38
2022-09-15T20:35:04.407Z,83.55
2022-09-15T20:37:37.218Z,83.62
2022-09-15T20:40:07.390Z,83.26
2022-09-15T20:42:37.131Z,82.98
2022-09-15T20:45:05.904Z,83.10
2022-09-15T20:47:34.398Z,83.16
2022-09-15T20:50:02.484Z,82.65
2022-09-15T20:52:36.026Z,82.41
2022-09-15T20:55:06.871Z,82.01
2022-09-15T20:57:36.431Z,82.06
2022-09-15T21:00:06.214Z,82.56
2022-09-15T21:02:34.334Z,81.53
2022-09-15T21:05:02.404Z,81.44
2022-09-15T21:07:31.511Z,81.65
2022-09-15T21:09:59.545Z,81.72
2022-09-15T21:12:27.611Z,81.94
2022-09-15T21:14:57.938Z,81.86
2022-09-15T21:17:25.885Z,82.00
2022-09-15T21:19:53.879Z,82.37
2022-09-15T21:22:22.128Z,81.82
2022-09-15T21:24:50.089Z,82.14
2022-09-15T21:27:30.634Z,82.13
2022-09-15T21:29:59.971Z,82.34
2022-09-15T21:32:28.203Z,82.33
2022-09-15T21:34:56.271Z,82.95
2022-09-15T21:37:27.864Z,82.43
2022-09-15T21:39:55.958Z,82.75
2022-09-15T21:42:24.097Z,82.54
2022-09-15T21:44:52.134Z,82.78
2022-09-15T21:47:21.505Z,83.06
2022-09-15T21:49:51.758Z,82.73
2022-09-15T21:52:19.814Z,82.67
2022-09-15T21:54:47.908Z,83.20
2022-09-15T21:57:16.135Z,82.99
2022-09-15T21:59:44.171Z,83.18
2022-09-15T22:02:12.310Z,82.93
2022-09-15T22:04:41.759Z,82.45
2022-09-15T22:07:09.754Z,82.56
2022-09-15T22:09:39.487Z,82.36
2022-09-15T22:12:08.523Z,82.19
2022-09-15T22:14:36.519Z,82.74
2022-09-15T22:17:04.501Z,82.77
2022-09-15T22:19:59.563Z,82.29
2022-09-15T22:22:27.656Z,82.35
2022-09-15T22:24:55.676Z,81.67
2022-09-15T22:27:23.721Z,82.11
2022-09-15T22:29:51.775Z,82.17
2022-09-15T22:32:19.795Z,82.19
2022-09-15T22:34:47.836Z,81.77
2022-09-15T22:37:17.169Z,81.64
2022-09-15T22:39:58.530Z,81.32
2022-09-15T22:42:27.521Z,82.75
2022-09-15T22:44:55.487Z,82.72
2022-09-15T22:47:23.497Z,82.35
2022-09-15T22:49:51.477Z,82.09
2022-09-15T22:52:21.209Z,82.63
2022-09-15T22:54:49.180Z,83.01
2022-09-15T22:57:17.152Z,82.81
2022-09-15T22:59:45.178Z,82.81
2022-09-15T23:02:13.204Z,82.09
2022-09-15T23:04:41.207Z,82.07
2022-09-15T23:07:09.524Z,81.94
2022-09-15T23:09:38.909Z,81.87
2022-09-15T23:12:08.907Z,81.60
2022-09-15T23:14:37.041Z,81.14
2022-09-15T23:17:05.030Z,82.21
2022-09-15T23:19:33.052Z,83.70
2022-09-15T23:22:01.032Z,83.94
2022-09-15T23:24:29.202Z,84.15
2022-09-15T23:26:58.514Z,83.41
2022-09-15T23:29:26.622Z,83.29
2022-09-15T23:31:54.798Z,83.76
2022-09-15T23:34:22.927Z,84.07
2022-09-15T23:36:50.932Z,84.17
2022-09-15T23:39:18.963Z,83.66
2022-09-15T23:41:46.961Z,84.13
2022-09-15T23:44:16.279Z,84.13
2022-09-15T23:46:44.334Z,84.34
2022-09-15T23:49:16.689Z,84.17
2022-09-15T23:51:46.553Z,84.52
2022-09-15T23:54:14.728Z,84.85
2022-09-15T23:56:43.383Z,84.42
2022-09-15T23:59:11.366Z,84.43
